Brevard, NC

12:59 AM EDT on August 30, 2016 (GMT -0400)
Barclay Road Weather | | Change Station

Elev 2182 ft 35.20 °N, 82.74 °W | Updated 2 seconds ago

Mostly Cloudy
Mostly Cloudy
64.4 °F
Feels Like 64.4 °F
N
0.0
Wind Variable Wind from NNE
Gusts 0.0 mph

Today
High -- | Low -- °F
--% Chance of Precip.
Yesterday
High -- | Low -- °F
Precip. -- in
Pressure 30.13 in
Visibility 10.0 miles
Clouds Mostly Cloudy 4100 ft
Dew Point 64 °F
Humidity 97%
Rainfall 0.00 in
Snow Depth Not available.
7:02 AM 7:59 PM
Waning Crescent, 5% visible
METAR KAVL 300454Z AUTO 00000KT 10SM BKN041 19/18 A3021 RMK AO2 SLP202 T01940178 402890161
Pressure 30.13 in
Visibility 10.0 miles
Clouds Mostly Cloudy 4100 ft
Dew Point 64 °F
Humidity 97%
Rainfall 0.00 in
Snow Depth Not available.
7:02 AM 7:59 PM
Waning Crescent, 5% visible
METAR KAVL 300454Z AUTO 00000KT 10SM BKN041 19/18 A3021 RMK AO2 SLP202 T01940178 402890161
Tropical Depression Nine was centered about 170 miles west-southwest of Key West, Florida, as of late Monday morning. The depression may struggle a bit in the southern Gulf of Mexico before finally making a Gulf Coast landfall later this week with soaking rain and gusty winds.

This latest system was designated a tropical depression Sunday after a Hurricane Hunter reconnaissance mission finally found a sufficiently organized low-pressure center with collocated shower and thunderstorm activity.

10-Day Weather Forecast

Almanac

Astronomy

Aug. 30, 2016 Rise Set
Actual Time
Civil Twilight
Nautical Twilight
Astronomical Twilight
Moon
Length of Visible Light
Length of Day
Tomorrow will be .
, % of the Moon is Illuminated

Today's Extremes

State Highs State Lows

Community

WunderPhotos

Upload Photos

1,935,791 photos uploaded!

WunderBlog® & News

Nearby

Air Quality

  Air Quality AQ Index Pollutant
Not available.

Snow Depth

Station Depth Elevation

Earthquake Activity

City Distance Mag. Time & Date
Minimum magnitude displayed is 2.5.

Coastal Water Temperatures

Place Temperature

Stations

Nearby Weather Stations

Station Location Temp. Windchill Dew Point Humidity Wind Precip. Elev Updated Type
                   

Watches & Warnings

There are currently no watches in effect.